sensor_id;sensor_type;location;lat;lon;timestamp;pressure;altitude;pressure_sealevel;temperature;humidity
71938;BME280;59810;48.800;9.086;2023-02-18T00:01:23;98522.91;;;11.40;72.73
71938;BME280;59810;48.800;9.086;2023-02-18T00:03:49;98525.69;;;11.34;72.80
71938;BME280;59810;48.800;9.086;2023-02-18T00:06:23;98518.63;;;11.33;73.02
71938;BME280;59810;48.800;9.086;2023-02-18T00:08:50;98529.09;;;11.29;73.21
71938;BME280;59810;48.800;9.086;2023-02-18T00:11:17;98520.97;;;11.29;73.05
71938;BME280;59810;48.800;9.086;2023-02-18T00:13:52;98524.41;;;11.36;72.70
71938;BME280;59810;48.800;9.086;2023-02-18T00:16:18;98513.59;;;11.36;73.15
71938;BME280;59810;48.800;9.086;2023-02-18T00:18:43;98517.59;;;11.34;72.83
71938;BME280;59810;48.800;9.086;2023-02-18T00:21:09;98526.63;;;11.28;73.45
71938;BME280;59810;48.800;9.086;2023-02-18T00:23:34;98521.56;;;11.31;73.07
71938;BME280;59810;48.800;9.086;2023-02-18T00:26:20;98521.09;;;11.34;73.20
71938;BME280;59810;48.800;9.086;2023-02-18T00:28:47;98515.94;;;11.33;73.01
71938;BME280;59810;48.800;9.086;2023-02-18T00:33:46;98529.91;;;11.30;73.33
71938;BME280;59810;48.800;9.086;2023-02-18T00:36:16;98534.03;;;11.32;73.03
71938;BME280;59810;48.800;9.086;2023-02-18T00:38:46;98528.63;;;11.32;73.20
71938;BME280;59810;48.800;9.086;2023-02-18T00:41:15;98522.31;;;11.38;72.91
71938;BME280;59810;48.800;9.086;2023-02-18T00:43:41;98511.03;;;11.41;72.54
71938;BME280;59810;48.800;9.086;2023-02-18T00:46:06;98507.75;;;11.39;72.65
71938;BME280;59810;48.800;9.086;2023-02-18T00:48:34;98496.44;;;11.42;72.49
71938;BME280;59810;48.800;9.086;2023-02-18T00:51:00;98505.63;;;11.41;72.44
71938;BME280;59810;48.800;9.086;2023-02-18T00:53:29;98509.38;;;11.40;72.56
71938;BME280;59810;48.800;9.086;2023-02-18T00:55:57;98507.75;;;11.39;72.71
71938;BME280;59810;48.800;9.086;2023-02-18T00:58:22;98509.97;;;11.42;72.32
71938;BME280;59810;48.800;9.086;2023-02-18T01:00:48;98488.56;;;11.41;72.84
71938;BME280;59810;48.800;9.086;2023-02-18T01:03:13;98497.50;;;11.41;72.54
71938;BME280;59810;48.800;9.086;2023-02-18T01:05:39;98505.84;;;11.40;72.33
71938;BME280;59810;48.800;9.086;2023-02-18T01:08:07;98507.28;;;11.42;72.76
71938;BME280;59810;48.800;9.086;2023-02-18T01:10:38;98497.50;;;11.41;72.81
71938;BME280;59810;48.800;9.086;2023-02-18T01:13:04;98494.91;;;11.35;73.15
71938;BME280;59810;48.800;9.086;2023-02-18T01:15:32;98493.72;;;11.31;73.36
71938;BME280;59810;48.800;9.086;2023-02-18T01:17:59;98491.72;;;11.26;73.16
71938;BME280;59810;48.800;9.086;2023-02-18T01:20:27;98501.00;;;11.18;73.51
71938;BME280;59810;48.800;9.086;2023-02-18T01:22:57;98495.22;;;11.15;73.91
71938;BME280;59810;48.800;9.086;2023-02-18T01:25:24;98498.75;;;11.15;74.00
71938;BME280;59810;48.800;9.086;2023-02-18T01:27:52;98484.53;;;11.08;74.46
71938;BME280;59810;48.800;9.086;2023-02-18T01:30:18;98481.69;;;11.03;74.72
71938;BME280;59810;48.800;9.086;2023-02-18T01:32:46;98478.03;;;10.98;74.66
71938;BME280;59810;48.800;9.086;2023-02-18T01:35:17;98475.19;;;10.93;75.07
71938;BME280;59810;48.800;9.086;2023-02-18T01:37:43;98476.94;;;10.87;75.29
71938;BME280;59810;48.800;9.086;2023-02-18T01:40:11;98467.56;;;10.89;75.11
71938;BME280;59810;48.800;9.086;2023-02-18T01:42:39;98477.53;;;10.89;75.30
71938;BME280;59810;48.800;9.086;2023-02-18T01:47:59;98465.19;;;10.81;75.54
71938;BME280;59810;48.800;9.086;2023-02-18T01:50:36;98450.28;;;10.79;75.56
71938;BME280;59810;48.800;9.086;2023-02-18T01:53:02;98460.84;;;10.80;75.70
71938;BME280;59810;48.800;9.086;2023-02-18T01:55:28;98458.38;;;10.79;75.45
71938;BME280;59810;48.800;9.086;2023-02-18T01:57:56;98463.78;;;10.79;75.24
71938;BME280;59810;48.800;9.086;2023-02-18T02:00:22;98462.50;;;10.81;75.42
71938;BME280;59810;48.800;9.086;2023-02-18T02:02:51;98466.25;;;10.80;75.04
71938;BME280;59810;48.800;9.086;2023-02-18T02:05:18;98461.31;;;10.77;75.19
71938;BME280;59810;48.800;9.086;2023-02-18T02:07:45;98459.66;;;10.76;75.27
71938;BME280;59810;48.800;9.086;2023-02-18T02:10:12;98458.69;;;10.71;75.38
71938;BME280;59810;48.800;9.086;2023-02-18T02:15:38;98463.50;;;10.69;75.37
71938;BME280;59810;48.800;9.086;2023-02-18T02:45:17;98439.69;;;10.77;75.21
71938;BME280;59810;48.800;9.086;2023-02-18T02:48:09;98443.00;;;10.79;75.12
71938;BME280;59810;48.800;9.086;2023-02-18T02:53:29;98437.59;;;10.79;75.07
71938;BME280;59810;48.800;9.086;2023-02-18T02:55:54;98436.78;;;10.79;75.17
71938;BME280;59810;48.800;9.086;2023-02-18T02:58:21;98433.47;;;10.77;74.84
71938;BME280;59810;48.800;9.086;2023-02-18T03:04:03;98438.97;;;10.70;75.12
71938;BME280;59810;48.800;9.086;2023-02-18T03:06:49;98444.22;;;10.65;75.32
71938;BME280;59810;48.800;9.086;2023-02-18T03:20:27;98440.69;;;10.53;75.08
71938;BME280;59810;48.800;9.086;2023-02-18T03:22:56;98431.97;;;10.51;74.97
71938;BME280;59810;48.800;9.086;2023-02-18T03:25:23;98431.41;;;10.49;75.22
71938;BME280;59810;48.800;9.086;2023-02-18T03:27:58;98425.88;;;10.44;75.13
71938;BME280;59810;48.800;9.086;2023-02-18T03:30:29;98424.81;;;10.45;74.78
71938;BME280;59810;48.800;9.086;2023-02-18T03:33:03;98419.88;;;10.42;74.95
71938;BME280;59810;48.800;9.086;2023-02-18T03:35:32;98426.16;;;10.36;75.34
71938;BME280;59810;48.800;9.086;2023-02-18T03:38:15;98426.03;;;10.31;75.33
71938;BME280;59810;48.800;9.086;2023-02-18T03:40:45;98425.44;;;10.28;75.58
71938;BME280;59810;48.800;9.086;2023-02-18T03:43:11;98418.97;;;10.29;75.68
71938;BME280;59810;48.800;9.086;2023-02-18T03:45:36;98419.56;;;10.32;75.46
71938;BME280;59810;48.800;9.086;2023-02-18T03:48:02;98426.03;;;10.31;75.30
71938;BME280;59810;48.800;9.086;2023-02-18T03:50:30;98422.50;;;10.30;75.52
71938;BME280;59810;48.800;9.086;2023-02-18T03:52:55;98426.25;;;10.29;75.33
71938;BME280;59810;48.800;9.086;2023-02-18T03:55:20;98428.50;;;10.32;75.21
71938;BME280;59810;48.800;9.086;2023-02-18T03:57:48;98423.41;;;10.24;75.45
71938;BME280;59810;48.800;9.086;2023-02-18T04:00:13;98435.88;;;10.25;75.42
71938;BME280;59810;48.800;9.086;2023-02-18T04:02:41;98421.31;;;10.26;75.78
71938;BME280;59810;48.800;9.086;2023-02-18T04:05:09;98418.63;;;10.26;75.53
71938;BME280;59810;48.800;9.086;2023-02-18T04:07:34;98425.44;;;10.28;75.40
71938;BME280;59810;48.800;9.086;2023-02-18T04:10:00;98433.06;;;10.32;75.32
71938;BME280;59810;48.800;9.086;2023-02-18T04:12:25;98435.53;;;10.33;75.59
71938;BME280;59810;48.800;9.086;2023-02-18T04:14:50;98434.03;;;10.37;75.63
71938;BME280;59810;48.800;9.086;2023-02-18T04:17:18;98428.41;;;10.39;75.55
71938;BME280;59810;48.800;9.086;2023-02-18T04:19:43;98424.66;;;10.40;75.42
71938;BME280;59810;48.800;9.086;2023-02-18T04:22:11;98416.94;;;10.43;74.93
71938;BME280;59810;48.800;9.086;2023-02-18T04:24:39;98417.75;;;10.44;74.97
71938;BME280;59810;48.800;9.086;2023-02-18T04:27:04;98415.53;;;10.41;74.87
71938;BME280;59810;48.800;9.086;2023-02-18T04:29:35;98404.72;;;10.41;74.70
71938;BME280;59810;48.800;9.086;2023-02-18T04:32:05;98411.16;;;10.40;74.68
71938;BME280;59810;48.800;9.086;2023-02-18T04:34:30;98412.19;;;10.39;74.61
71938;BME280;59810;48.800;9.086;2023-02-18T04:36:55;98408.91;;;10.37;74.78
71938;BME280;59810;48.800;9.086;2023-02-18T04:39:23;98416.88;;;10.32;74.88
71938;BME280;59810;48.800;9.086;2023-02-18T04:41:51;98412.75;;;10.29;74.99
71938;BME280;59810;48.800;9.086;2023-02-18T04:44:16;98416.97;;;10.25;75.12
71938;BME280;59810;48.800;9.086;2023-02-18T04:46:44;98413.97;;;10.15;75.80
71938;BME280;59810;48.800;9.086;2023-02-18T04:49:09;98412.09;;;10.15;75.39
71938;BME280;59810;48.800;9.086;2023-02-18T04:51:37;98413.00;;;10.09;75.40
71938;BME280;59810;48.800;9.086;2023-02-18T04:54:05;98413.59;;;10.11;75.69
71938;BME280;59810;48.800;9.086;2023-02-18T04:56:33;98414.44;;;10.12;75.50
71938;BME280;59810;48.800;9.086;2023-02-18T04:58:58;98414.19;;;10.13;75.32
71938;BME280;59810;48.800;9.086;2023-02-18T05:01:23;98406.56;;;10.10;75.43
71938;BME280;59810;48.800;9.086;2023-02-18T05:03:49;98407.63;;;10.09;75.63
71938;BME280;59810;48.800;9.086;2023-02-18T05:06:16;98414.06;;;10.08;75.34
71938;BME280;59810;48.800;9.086;2023-02-18T05:08:41;98409.09;;;10.05;75.74
71938;BME280;59810;48.800;9.086;2023-02-18T05:11:09;98410.16;;;10.04;75.63
71938;BME280;59810;48.800;9.086;2023-02-18T05:13:35;98415.53;;;10.04;75.71
71938;BME280;59810;48.800;9.086;2023-02-18T05:16:00;98416.00;;;10.01;75.81
71938;BME280;59810;48.800;9.086;2023-02-18T05:18:26;98412.47;;;10.01;75.73
71938;BME280;59810;48.800;9.086;2023-02-18T05:20:51;98418.56;;;9.96;76.22
71938;BME280;59810;48.800;9.086;2023-02-18T05:23:21;98423.34;;;9.94;76.39
71938;BME280;59810;48.800;9.086;2023-02-18T05:25:53;98413.63;;;9.93;76.27
71938;BME280;59810;48.800;9.086;2023-02-18T05:28:21;98417.38;;;9.92;76.48
71938;BME280;59810;48.800;9.086;2023-02-18T05:30:46;98415.72;;;9.91;76.52
71938;BME280;59810;48.800;9.086;2023-02-18T05:33:12;98418.66;;;9.89;76.84
71938;BME280;59810;48.800;9.086;2023-02-18T05:35:37;98413.03;;;9.91;76.97
71938;BME280;59810;48.800;9.086;2023-02-18T05:38:02;98409.03;;;9.93;76.66
71938;BME280;59810;48.800;9.086;2023-02-18T05:40:28;98413.25;;;9.89;76.89
71938;BME280;59810;48.800;9.086;2023-02-18T05:42:53;98400.00;;;9.88;77.24
71938;BME280;59810;48.800;9.086;2023-02-18T05:45:19;98397.66;;;9.91;77.16
71938;BME280;59810;48.800;9.086;2023-02-18T05:47:44;98398.25;;;9.93;76.89
71938;BME280;59810;48.800;9.086;2023-02-18T05:50:09;98402.81;;;9.93;77.32
71938;BME280;59810;48.800;9.086;2023-02-18T05:52:39;98402.16;;;9.97;77.40
71938;BME280;59810;48.800;9.086;2023-02-18T05:55:05;98398.63;;;9.97;77.40
71938;BME280;59810;48.800;9.086;2023-02-18T05:57:32;98403.41;;;9.95;77.73
71938;BME280;59810;48.800;9.086;2023-02-18T05:59:58;98400.50;;;9.96;77.70
71938;BME280;59810;48.800;9.086;2023-02-18T06:02:23;98395.00;;;10.03;77.34
71938;BME280;59810;48.800;9.086;2023-02-18T06:04:48;98396.00;;;10.09;77.44
71938;BME280;59810;48.800;9.086;2023-02-18T06:07:14;98397.25;;;10.06;77.55
71938;BME280;59810;48.800;9.086;2023-02-18T06:09:39;98391.03;;;10.06;77.86
71938;BME280;59810;48.800;9.086;2023-02-18T06:12:07;98394.56;;;10.06;77.76
71938;BME280;59810;48.800;9.086;2023-02-18T06:14:32;98395.31;;;10.13;77.70
71938;BME280;59810;48.800;9.086;2023-02-18T06:17:00;98404.47;;;10.12;77.38
71938;BME280;59810;48.800;9.086;2023-02-18T06:19:25;98403.78;;;10.17;77.15
71938;BME280;59810;48.800;9.086;2023-02-18T06:21:53;98402.34;;;10.14;77.35
71938;BME280;59810;48.800;9.086;2023-02-18T06:24:20;98391.56;;;10.14;77.41
71938;BME280;59810;48.800;9.086;2023-02-18T06:26:45;98405.06;;;10.14;77.40
71938;BME280;59810;48.800;9.086;2023-02-18T06:29:10;98395.31;;;10.13;77.29
71938;BME280;59810;48.800;9.086;2023-02-18T06:31:36;98401.75;;;10.12;77.41
71938;BME280;59810;48.800;9.086;2023-02-18T06:34:01;98393.22;;;10.15;77.22
71938;BME280;59810;48.800;9.086;2023-02-18T06:36:29;98394.34;;;10.26;76.83
71938;BME280;59810;48.800;9.086;2023-02-18T06:39:13;98393.03;;;10.28;76.92
71938;BME280;59810;48.800;9.086;2023-02-18T06:41:38;98406.09;;;10.32;76.73
71938;BME280;59810;48.800;9.086;2023-02-18T06:44:04;98398.81;;;10.32;76.55
71938;BME280;59810;48.800;9.086;2023-02-18T06:46:30;98401.41;;;10.39;76.17
71938;BME280;59810;48.800;9.086;2023-02-18T06:48:55;98402.63;;;10.43;75.87
71938;BME280;59810;48.800;9.086;2023-02-18T06:51:21;98404.84;;;10.46;75.69
71938;BME280;59810;48.800;9.086;2023-02-18T06:53:51;98401.81;;;10.54;75.51
71938;BME280;59810;48.800;9.086;2023-02-18T06:56:16;98395.13;;;10.56;75.03
71938;BME280;59810;48.800;9.086;2023-02-18T06:58:44;98404.19;;;10.62;74.52
71938;BME280;59810;48.800;9.086;2023-02-18T07:01:09;98398.69;;;10.69;74.14
71938;BME280;59810;48.800;9.086;2023-02-18T07:03:34;98406.94;;;10.74;74.06
71938;BME280;59810;48.800;9.086;2023-02-18T07:06:00;98410.66;;;10.73;74.13
71938;BME280;59810;48.800;9.086;2023-02-18T07:08:25;98409.75;;;10.79;73.86
71938;BME280;59810;48.800;9.086;2023-02-18T07:10:51;98404.59;;;10.77;73.86
71938;BME280;59810;48.800;9.086;2023-02-18T07:13:18;98405.19;;;10.79;74.09
71938;BME280;59810;48.800;9.086;2023-02-18T07:15:44;98411.16;;;10.81;73.91
71938;BME280;59810;48.800;9.086;2023-02-18T07:18:10;98395.56;;;10.83;73.49
71938;BME280;59810;48.800;9.086;2023-02-18T07:20:36;98404.38;;;10.90;73.30
71938;BME280;59810;48.800;9.086;2023-02-18T07:23:02;98405.53;;;10.95;73.00
71938;BME280;59810;48.800;9.086;2023-02-18T07:25:27;98402.38;;;10.98;72.66
71938;BME280;59810;48.800;9.086;2023-02-18T07:27:52;98400.97;;;10.95;72.58
71938;BME280;59810;48.800;9.086;2023-02-18T07:30:19;98392.16;;;11.00;72.73
71938;BME280;59810;48.800;9.086;2023-02-18T07:32:47;98393.78;;;11.01;72.63
71938;BME280;59810;48.800;9.086;2023-02-18T07:35:15;98392.66;;;11.08;71.65
71938;BME280;59810;48.800;9.086;2023-02-18T07:37:48;98383.47;;;11.09;71.72
71938;BME280;59810;48.800;9.086;2023-02-18T07:40:16;98382.53;;;11.15;71.35
71938;BME280;59810;48.800;9.086;2023-02-18T07:42:42;98380.31;;;11.24;71.29
71938;BME280;59810;48.800;9.086;2023-02-18T07:45:08;98375.72;;;11.25;71.09
71938;BME280;59810;48.800;9.086;2023-02-18T07:47:34;98377.72;;;11.29;70.75
71938;BME280;59810;48.800;9.086;2023-02-18T07:50:02;98383.56;;;11.38;70.56
71938;BME280;59810;48.800;9.086;2023-02-18T07:52:30;98372.66;;;11.44;70.03
71938;BME280;59810;48.800;9.086;2023-02-18T07:54:58;98370.53;;;11.46;70.35
71938;BME280;59810;48.800;9.086;2023-02-18T07:57:23;98365.91;;;11.59;69.25
71938;BME280;59810;48.800;9.086;2023-02-18T07:59:48;98374.63;;;11.61;69.44
71938;BME280;59810;48.800;9.086;2023-02-18T08:02:21;98377.91;;;11.63;69.21
71938;BME280;59810;48.800;9.086;2023-02-18T08:04:47;98380.50;;;11.58;69.55
71938;BME280;59810;48.800;9.086;2023-02-18T08:07:16;98381.66;;;11.62;69.23
71938;BME280;59810;48.800;9.086;2023-02-18T08:09:44;98385.44;;;11.61;69.58
71938;BME280;59810;48.800;9.086;2023-02-18T08:12:10;98378.72;;;11.63;69.52
71938;BME280;59810;48.800;9.086;2023-02-18T08:14:35;98384.97;;;11.64;69.54
71938;BME280;59810;48.800;9.086;2023-02-18T08:17:00;98384.47;;;11.67;69.40
71938;BME280;59810;48.800;9.086;2023-02-18T08:19:26;98391.28;;;11.69;69.36
71938;BME280;59810;48.800;9.086;2023-02-18T08:21:51;98392.84;;;11.77;69.03
71938;BME280;59810;48.800;9.086;2023-02-18T08:24:19;98381.56;;;11.80;68.45
71938;BME280;59810;48.800;9.086;2023-02-18T08:26:44;98385.44;;;11.84;68.35
71938;BME280;59810;48.800;9.086;2023-02-18T08:29:10;98377.88;;;11.86;68.16
71938;BME280;59810;48.800;9.086;2023-02-18T08:31:35;98374.38;;;11.86;68.43
71938;BME280;59810;48.800;9.086;2023-02-18T08:34:03;98367.97;;;11.92;68.13
71938;BME280;59810;48.800;9.086;2023-02-18T08:36:34;98365.63;;;11.95;68.36
71938;BME280;59810;48.800;9.086;2023-02-18T08:39:00;98368.41;;;12.00;68.40
71938;BME280;59810;48.800;9.086;2023-02-18T08:41:25;98360.28;;;12.12;67.39
71938;BME280;59810;48.800;9.086;2023-02-18T08:43:51;98358.47;;;12.18;67.25
71938;BME280;59810;48.800;9.086;2023-02-18T08:46:16;98358.81;;;12.21;67.03
71938;BME280;59810;48.800;9.086;2023-02-18T08:48:43;98369.16;;;12.24;67.21
71938;BME280;59810;48.800;9.086;2023-02-18T08:53:36;98372.94;;;12.23;67.35
71938;BME280;59810;48.800;9.086;2023-02-18T08:56:08;98362.91;;;12.24;67.56
71938;BME280;59810;48.800;9.086;2023-02-18T08:58:34;98362.19;;;12.28;67.40
71938;BME280;59810;48.800;9.086;2023-02-18T09:01:02;98365.13;;;12.27;67.22
71938;BME280;59810;48.800;9.086;2023-02-18T09:03:28;98360.50;;;12.39;67.28
71938;BME280;59810;48.800;9.086;2023-02-18T09:05:54;98350.59;;;12.44;66.53
71938;BME280;59810;48.800;9.086;2023-02-18T09:08:20;98355.25;;;12.49;66.58
71938;BME280;59810;48.800;9.086;2023-02-18T09:10:47;98350.09;;;12.48;66.52
71938;BME280;59810;48.800;9.086;2023-02-18T09:13:13;98340.31;;;12.63;65.86
71938;BME280;59810;48.800;9.086;2023-02-18T09:15:38;98350.09;;;12.64;66.24
71938;BME280;59810;48.800;9.086;2023-02-18T09:18:03;98338.75;;;12.67;65.67
71938;BME280;59810;48.800;9.086;2023-02-18T09:20:29;98345.94;;;12.73;65.55
71938;BME280;59810;48.800;9.086;2023-02-18T09:22:54;98333.13;;;12.86;64.91
71938;BME280;59810;48.800;9.086;2023-02-18T09:25:20;98331.94;;;12.98;64.72
71938;BME280;59810;48.800;9.086;2023-02-18T09:27:45;98330.47;;;12.91;64.44
71938;BME280;59810;48.800;9.086;2023-02-18T09:30:10;98326.13;;;12.90;64.33
71938;BME280;59810;48.800;9.086;2023-02-18T09:32:36;98318.63;;;12.97;64.20
71938;BME280;59810;48.800;9.086;2023-02-18T09:35:03;98331.78;;;12.88;64.64
71938;BME280;59810;48.800;9.086;2023-02-18T09:37:29;98340.25;;;12.92;64.20
71938;BME280;59810;48.800;9.086;2023-02-18T09:39:57;98328.66;;;12.96;63.87
71938;BME280;59810;48.800;9.086;2023-02-18T09:42:29;98332.44;;;12.95;64.37
71938;BME280;59810;48.800;9.086;2023-02-18T09:45:00;98327.84;;;12.96;64.36
71938;BME280;59810;48.800;9.086;2023-02-18T09:47:30;98338.09;;;12.94;64.39
71938;BME280;59810;48.800;9.086;2023-02-18T09:50:03;98320.28;;;12.98;64.10
71938;BME280;59810;48.800;9.086;2023-02-18T09:52:33;98326.06;;;13.01;64.50
71938;BME280;59810;48.800;9.086;2023-02-18T09:55:01;98329.81;;;13.00;64.15
71938;BME280;59810;48.800;9.086;2023-02-18T09:57:46;98329.81;;;13.00;64.31
71938;BME280;59810;48.800;9.086;2023-02-18T10:00:16;98333.44;;;13.06;64.09
71938;BME280;59810;48.800;9.086;2023-02-18T10:02:53;98341.88;;;13.09;63.82
71938;BME280;59810;48.800;9.086;2023-02-18T10:05:20;98327.50;;;13.09;63.39
71938;BME280;59810;48.800;9.086;2023-02-18T10:07:47;98329.81;;;13.00;64.25
71938;BME280;59810;48.800;9.086;2023-02-18T10:12:49;98329.47;;;12.97;64.54
71938;BME280;59810;48.800;9.086;2023-02-18T10:15:20;98336.91;;;13.01;64.39
71938;BME280;59810;48.800;9.086;2023-02-18T10:17:48;98339.94;;;13.05;63.91
71938;BME280;59810;48.800;9.086;2023-02-18T10:20:19;98332.53;;;13.17;63.75
71938;BME280;59810;48.800;9.086;2023-02-18T10:22:47;98333.50;;;13.28;64.10
71938;BME280;59810;48.800;9.086;2023-02-18T10:25:18;98339.22;;;13.31;63.44
71938;BME280;59810;48.800;9.086;2023-02-18T10:27:45;98333.97;;;13.42;64.53
71938;BME280;59810;48.800;9.086;2023-02-18T10:30:35;98332.09;;;13.42;62.86
71938;BME280;59810;48.800;9.086;2023-02-18T10:38:41;98335.34;;;13.44;61.46
71938;BME280;59810;48.800;9.086;2023-02-18T10:43:53;98335.81;;;13.58;61.03
71938;BME280;59810;48.800;9.086;2023-02-18T10:46:36;98339.09;;;13.60;61.55
71938;BME280;59810;48.800;9.086;2023-02-18T10:49:24;98322.81;;;13.60;60.97
71938;BME280;59810;48.800;9.086;2023-02-18T10:51:57;98318.44;;;13.59;60.65
71938;BME280;59810;48.800;9.086;2023-02-18T10:54:46;98331.50;;;13.62;61.44
71938;BME280;59810;48.800;9.086;2023-02-18T10:57:17;98318.59;;;13.69;60.48
71938;BME280;59810;48.800;9.086;2023-02-18T10:59:54;98322.44;;;13.73;60.17
71938;BME280;59810;48.800;9.086;2023-02-18T11:02:20;98314.81;;;13.70;60.46
71938;BME280;59810;48.800;9.086;2023-02-18T11:04:45;98316.97;;;13.68;60.17
71938;BME280;59810;48.800;9.086;2023-02-18T11:07:15;98309.94;;;13.72;59.74
71938;BME280;59810;48.800;9.086;2023-02-18T11:09:55;98308.00;;;13.67;59.44
71938;BME280;59810;48.800;9.086;2023-02-18T11:17:41;98292.84;;;13.72;58.84
71938;BME280;59810;48.800;9.086;2023-02-18T11:22:51;98301.34;;;13.80;57.81
71938;BME280;59810;48.800;9.086;2023-02-18T11:25:27;98299.09;;;13.72;58.40
71938;BME280;59810;48.800;9.086;2023-02-18T11:28:00;98289.88;;;13.73;58.31
71938;BME280;59810;48.800;9.086;2023-02-18T11:30:37;98282.03;;;13.77;58.35
71938;BME280;59810;48.800;9.086;2023-02-18T11:33:09;98284.25;;;13.80;57.83
71938;BME280;59810;48.800;9.086;2023-02-18T11:35:48;98282.34;;;13.80;57.95
71938;BME280;59810;48.800;9.086;2023-02-18T11:38:34;98287.25;;;13.83;58.28
71938;BME280;59810;48.800;9.086;2023-02-18T11:41:07;98289.56;;;13.96;57.18
71938;BME280;59810;48.800;9.086;2023-02-18T11:43:33;98274.88;;;13.92;57.47
71938;BME280;59810;48.800;9.086;2023-02-18T11:46:18;98278.63;;;13.86;57.08
71938;BME280;59810;48.800;9.086;2023-02-18T11:48:47;98284.34;;;13.90;57.39
71938;BME280;59810;48.800;9.086;2023-02-18T11:56:26;98272.06;;;13.82;57.69
71938;BME280;59810;48.800;9.086;2023-02-18T11:58:54;98264.44;;;13.79;57.65
71938;BME280;59810;48.800;9.086;2023-02-18T12:01:30;98257.72;;;13.87;57.71
71938;BME280;59810;48.800;9.086;2023-02-18T12:03:58;98256.63;;;13.88;57.55
71938;BME280;59810;48.800;9.086;2023-02-18T12:06:36;98268.06;;;13.90;57.62
71938;BME280;59810;48.800;9.086;2023-02-18T12:09:29;98270.50;;;13.91;57.37
71938;BME280;59810;48.800;9.086;2023-02-18T12:12:06;98260.53;;;13.97;57.03
71938;BME280;59810;48.800;9.086;2023-02-18T12:14:35;98274.19;;;14.02;57.08
71938;BME280;59810;48.800;9.086;2023-02-18T12:25:21;98263.06;;;14.04;55.57
71938;BME280;59810;48.800;9.086;2023-02-18T12:33:43;98271.50;;;13.80;56.48
71938;BME280;59810;48.800;9.086;2023-02-18T12:36:26;98257.56;;;13.72;56.73
71938;BME280;59810;48.800;9.086;2023-02-18T12:41:54;98262.94;;;13.66;56.78
71938;BME280;59810;48.800;9.086;2023-02-18T12:50:37;98265.19;;;13.53;57.45
71938;BME280;59810;48.800;9.086;2023-02-18T13:01:19;98263.00;;;13.50;57.24
71938;BME280;59810;48.800;9.086;2023-02-18T13:04:01;98251.22;;;13.39;58.41
71938;BME280;59810;48.800;9.086;2023-02-18T13:09:34;98259.97;;;13.24;58.57
71938;BME280;59810;48.800;9.086;2023-02-18T13:12:22;98262.09;;;13.22;58.87
71938;BME280;59810;48.800;9.086;2023-02-18T13:15:16;98270.50;;;13.21;58.92
71938;BME280;59810;48.800;9.086;2023-02-18T13:17:47;98252.59;;;13.20;58.72
71938;BME280;59810;48.800;9.086;2023-02-18T13:22:39;98247.31;;;13.13;59.24
71938;BME280;59810;48.800;9.086;2023-02-18T13:25:11;98243.47;;;13.09;59.72
71938;BME280;59810;48.800;9.086;2023-02-18T13:37:54;98229.41;;;13.12;59.33
71938;BME280;59810;48.800;9.086;2023-02-18T13:40:28;98222.41;;;13.16;58.97
71938;BME280;59810;48.800;9.086;2023-02-18T13:43:17;98219.53;;;13.23;58.44
71938;BME280;59810;48.800;9.086;2023-02-18T13:46:08;98224.25;;;13.32;58.21
71938;BME280;59810;48.800;9.086;2023-02-18T13:49:04;98215.13;;;13.38;58.15
71938;BME280;59810;48.800;9.086;2023-02-18T13:51:39;98216.31;;;13.48;58.03
71938;BME280;59810;48.800;9.086;2023-02-18T13:56:42;98196.31;;;13.54;57.18
71938;BME280;59810;48.800;9.086;2023-02-18T13:59:10;98199.75;;;13.71;56.71
71938;BME280;59810;48.800;9.086;2023-02-18T14:01:45;98200.31;;;13.73;56.38
71938;BME280;59810;48.800;9.086;2023-02-18T14:09:58;98171.41;;;13.89;55.53
71938;BME280;59810;48.800;9.086;2023-02-18T14:14:55;98181.50;;;13.93;56.07
71938;BME280;59810;48.800;9.086;2023-02-18T14:17:29;98182.38;;;13.99;55.85
71938;BME280;59810;48.800;9.086;2023-02-18T14:22:45;98169.00;;;13.92;56.09
71938;BME280;59810;48.800;9.086;2023-02-18T14:27:49;98178.09;;;14.08;56.37
71938;BME280;59810;48.800;9.086;2023-02-18T14:30:19;98182.97;;;14.06;56.00
71938;BME280;59810;48.800;9.086;2023-02-18T14:32:51;98178.22;;;13.91;56.65
71938;BME280;59810;48.800;9.086;2023-02-18T14:38:34;98178.66;;;13.78;56.93
71938;BME280;59810;48.800;9.086;2023-02-18T14:51:53;98168.34;;;13.80;57.53
71938;BME280;59810;48.800;9.086;2023-02-18T14:54:24;98175.97;;;13.83;57.75
71938;BME280;59810;48.800;9.086;2023-02-18T14:59:23;98171.84;;;13.76;57.50
71938;BME280;59810;48.800;9.086;2023-02-18T15:01:53;98178.88;;;13.72;57.36
71938;BME280;59810;48.800;9.086;2023-02-18T15:04:19;98184.59;;;13.75;57.47
71938;BME280;59810;48.800;9.086;2023-02-18T15:06:44;98170.97;;;13.70;57.62
71938;BME280;59810;48.800;9.086;2023-02-18T15:09:23;98168.31;;;13.75;57.82
71938;BME280;59810;48.800;9.086;2023-02-18T15:12:03;98172.09;;;13.74;57.63
71938;BME280;59810;48.800;9.086;2023-02-18T15:14:33;98168.31;;;13.75;57.83
71938;BME280;59810;48.800;9.086;2023-02-18T15:17:03;98187.25;;;13.70;58.08
71938;BME280;59810;48.800;9.086;2023-02-18T15:19:36;98184.97;;;13.62;58.29
71938;BME280;59810;48.800;9.086;2023-02-18T15:22:03;98182.44;;;13.50;58.94
71938;BME280;59810;48.800;9.086;2023-02-18T15:24:34;98188.13;;;13.49;59.04
71938;BME280;59810;48.800;9.086;2023-02-18T15:27:10;98188.88;;;13.44;59.35
71938;BME280;59810;48.800;9.086;2023-02-18T15:29:39;98194.81;;;13.41;59.70
71938;BME280;59810;48.800;9.086;2023-02-18T15:32:16;98195.25;;;13.33;59.79
71938;BME280;59810;48.800;9.086;2023-02-18T15:34:43;98199.69;;;13.17;60.50
71938;BME280;59810;48.800;9.086;2023-02-18T15:37:12;98203.06;;;13.07;60.92
71938;BME280;59810;48.800;9.086;2023-02-18T15:39:38;98202.50;;;13.05;61.21
71938;BME280;59810;48.800;9.086;2023-02-18T15:45:18;98192.00;;;12.92;62.09
71938;BME280;59810;48.800;9.086;2023-02-18T15:47:43;98188.41;;;12.87;62.34
71938;BME280;59810;48.800;9.086;2023-02-18T15:50:51;98191.69;;;12.89;62.06
71938;BME280;59810;48.800;9.086;2023-02-18T15:53:15;98191.38;;;12.85;62.63